createdAt,value
2019-03-18T00:00:15.291Z,21.82
2019-03-18T00:02:45.017Z,22.58
2019-03-18T00:05:13.587Z,20.60
2019-03-18T00:07:41.969Z,23.40
2019-03-18T00:10:10.158Z,20.92
2019-03-18T00:12:38.315Z,23.30
2019-03-18T00:15:06.494Z,25.17
2019-03-18T00:17:34.974Z,20.75
2019-03-18T00:20:03.453Z,22.32
2019-03-18T00:22:31.736Z,22.22
2019-03-18T00:25:00.176Z,22.73
2019-03-18T00:27:28.389Z,19.10
2019-03-18T00:29:56.564Z,21.73
2019-03-18T00:32:24.636Z,22.32
2019-03-18T00:34:53.016Z,21.65
2019-03-18T00:37:21.398Z,20.72
2019-03-18T00:39:49.776Z,20.97
2019-03-18T00:42:18.459Z,19.30
2019-03-18T00:44:46.850Z,20.55
2019-03-18T00:47:17.684Z,19.12
2019-03-18T00:49:46.061Z,20.23
2019-03-18T00:52:14.542Z,19.20
2019-03-18T00:54:42.515Z,19.80
2019-03-18T00:57:11.203Z,21.52
2019-03-18T00:59:39.274Z,19.27
2019-03-18T01:02:07.757Z,19.42
2019-03-18T01:04:36.041Z,17.70
2019-03-18T01:07:04.619Z,18.73
2019-03-18T01:09:32.903Z,18.23
2019-03-18T01:12:00.968Z,18.82
2019-03-18T01:14:29.459Z,16.80
2019-03-18T01:16:57.736Z,18.10
2019-03-18T01:19:25.802Z,19.80
2019-03-18T01:21:54.487Z,18.42
2019-03-18T01:24:23.389Z,17.02
2019-03-18T01:26:51.656Z,20.62
2019-03-18T01:29:20.036Z,16.95
2019-03-18T01:31:48.315Z,18.00
2019-03-18T01:34:16.387Z,19.27
2019-03-18T01:36:44.973Z,18.37
2019-03-18T01:39:13.079Z,18.07
2019-03-18T01:41:41.526Z,17.67
2019-03-18T01:44:10.015Z,17.90
2019-03-18T01:46:38.797Z,23.35
2019-03-18T01:49:07.178Z,19.92
2019-03-18T01:51:35.456Z,18.90
2019-03-18T01:54:05.279Z,20.25
2019-03-18T01:56:33.344Z,19.85
2019-03-18T01:59:01.721Z,19.17
2019-03-18T02:01:30.002Z,20.27
2019-03-18T02:03:58.583Z,20.45
2019-03-18T02:06:26.656Z,22.73
2019-03-18T02:08:54.842Z,18.62
2019-03-18T02:11:23.313Z,19.42
2019-03-18T02:13:51.692Z,20.10
2019-03-18T02:16:20.174Z,21.70
2019-03-18T02:18:48.248Z,19.02
2019-03-18T02:21:16.835Z,18.95
2019-03-18T02:23:45.006Z,22.05
2019-03-18T02:26:13.700Z,21.60
2019-03-18T02:28:42.099Z,25.17
2019-03-18T02:31:10.148Z,21.77
2019-03-18T02:33:38.838Z,22.98
2019-03-18T02:36:06.670Z,20.55
2019-03-18T02:38:34.878Z,24.20
2019-03-18T02:41:03.472Z,24.92
2019-03-18T02:43:31.846Z,22.10
2019-03-18T02:46:09.995Z,20.60
2019-03-18T02:48:29.676Z,21.12
2019-03-18T02:50:57.698Z,22.30
2019-03-18T02:53:26.082Z,22.55
2019-03-18T02:55:54.590Z,21.48
2019-03-18T02:58:23.152Z,21.80
2019-03-18T03:00:51.636Z,31.35
2019-03-18T03:03:20.021Z,23.70
2019-03-18T03:05:48.293Z,24.32
2019-03-18T03:08:16.680Z,21.80
2019-03-18T03:10:44.846Z,23.22
2019-03-18T03:13:14.154Z,23.60
2019-03-18T03:15:42.759Z,19.95
2019-03-18T03:18:11.005Z,20.55
2019-03-18T03:20:39.179Z,22.37
2019-03-18T03:23:07.671Z,22.13
2019-03-18T03:25:35.837Z,20.20
2019-03-18T03:28:04.122Z,21.90
2019-03-18T03:30:32.903Z,19.87
2019-03-18T03:33:00.977Z,19.65
2019-03-18T03:35:29.374Z,22.22
2019-03-18T03:37:57.838Z,21.50
2019-03-18T03:40:26.420Z,21.15
2019-03-18T03:42:55.037Z,21.52
2019-03-18T03:45:23.386Z,23.18
2019-03-18T03:47:52.072Z,24.25
2019-03-18T03:50:20.390Z,23.38
2019-03-18T03:52:48.945Z,23.50
2019-03-18T03:55:20.403Z,21.48
2019-03-18T03:57:48.831Z,26.57
2019-03-18T04:00:17.259Z,24.75
2019-03-18T04:02:45.870Z,25.25
2019-03-18T04:05:14.115Z,23.18
2019-03-18T04:07:42.501Z,23.65
2019-03-18T04:10:11.397Z,21.85
2019-03-18T04:12:40.521Z,22.37
2019-03-18T04:15:08.857Z,26.02
2019-03-18T04:17:37.856Z,24.85
2019-03-18T04:20:06.733Z,21.77
2019-03-18T04:22:34.837Z,23.40
2019-03-18T04:25:03.403Z,26.87
2019-03-18T04:27:31.679Z,25.43
2019-03-18T04:29:59.965Z,26.73
2019-03-18T04:32:28.364Z,23.45
2019-03-18T04:34:56.616Z,27.02
2019-03-18T04:37:24.892Z,26.10
2019-03-18T04:39:52.967Z,28.67
2019-03-18T04:42:21.035Z,31.77
2019-03-18T04:44:49.185Z,28.90
2019-03-18T04:47:17.700Z,34.88
2019-03-18T04:49:45.766Z,36.58
2019-03-18T04:52:13.967Z,40.40
2019-03-18T04:54:42.218Z,38.35
2019-03-18T04:57:10.808Z,40.10
2019-03-18T04:59:39.082Z,42.43
2019-03-18T05:02:07.668Z,43.10
2019-03-18T05:04:36.966Z,50.30
2019-03-18T05:07:05.555Z,43.28
2019-03-18T05:09:34.246Z,49.75
2019-03-18T05:12:03.006Z,45.52
2019-03-18T05:14:34.179Z,54.05
2019-03-18T05:17:02.762Z,46.28
2019-03-18T05:19:31.288Z,48.23
2019-03-18T05:22:00.446Z,48.20
2019-03-18T05:24:28.819Z,52.25
2019-03-18T05:26:57.527Z,53.20
2019-03-18T05:29:25.577Z,47.80
2019-03-18T05:31:54.099Z,51.53
2019-03-18T05:34:22.647Z,50.78
2019-03-18T05:36:50.934Z,46.20
2019-03-18T05:39:19.099Z,45.15
2019-03-18T05:41:47.795Z,45.63
2019-03-18T05:44:16.171Z,47.43
2019-03-18T05:46:44.557Z,44.98
2019-03-18T05:49:13.025Z,44.63
2019-03-18T05:51:41.616Z,48.30
2019-03-18T05:54:10.808Z,48.08
2019-03-18T05:56:39.291Z,47.27
2019-03-18T05:59:07.496Z,45.75
2019-03-18T06:01:35.952Z,48.52
2019-03-18T06:04:04.434Z,52.33
2019-03-18T06:06:32.811Z,50.78
2019-03-18T06:09:00.996Z,52.98
2019-03-18T06:11:30.391Z,58.70
2019-03-18T06:13:58.565Z,53.10
2019-03-18T06:16:26.946Z,50.00
2019-03-18T06:18:55.542Z,52.90
2019-03-18T06:21:23.619Z,56.73
2019-03-18T06:23:51.990Z,51.98
2019-03-18T06:26:20.259Z,56.28
2019-03-18T06:28:48.334Z,55.67
2019-03-18T06:31:16.917Z,55.30
2019-03-18T06:33:45.298Z,56.35
2019-03-18T06:36:13.676Z,58.55
2019-03-18T06:38:41.852Z,56.23
2019-03-18T06:41:10.129Z,56.88
2019-03-18T06:43:38.714Z,57.60
2019-03-18T06:46:06.887Z,54.73
2019-03-18T06:48:35.575Z,54.77
2019-03-18T06:51:03.854Z,54.38
2019-03-18T06:53:32.247Z,51.88
2019-03-18T06:56:00.621Z,55.15
2019-03-18T06:58:29.005Z,55.83
2019-03-18T07:00:57.167Z,57.38
2019-03-18T07:03:25.755Z,57.17
2019-03-18T07:05:53.825Z,60.50
2019-03-18T07:08:22.205Z,58.55
2019-03-18T07:10:53.305Z,55.67
2019-03-18T07:13:20.310Z,50.70
2019-03-18T07:15:48.675Z,52.25
2019-03-18T07:18:18.443Z,56.50
2019-03-18T07:20:46.995Z,51.50
2019-03-18T07:23:15.351Z,52.85
2019-03-18T07:25:43.834Z,52.03
2019-03-18T07:28:11.909Z,54.05
2019-03-18T07:30:40.387Z,52.83
2019-03-18T07:33:08.783Z,52.48
2019-03-18T07:35:37.148Z,55.40
2019-03-18T07:38:05.527Z,51.18
2019-03-18T07:40:34.111Z,53.45
2019-03-18T07:43:02.183Z,48.83
2019-03-18T07:45:30.564Z,48.90
2019-03-18T07:47:58.953Z,47.85
2019-03-18T07:50:27.221Z,55.25
2019-03-18T07:52:55.908Z,46.18
2019-03-18T07:55:24.083Z,52.75
2019-03-18T07:57:52.567Z,49.53
2019-03-18T08:00:20.844Z,52.93
2019-03-18T08:02:49.428Z,45.05
2019-03-18T08:05:17.604Z,44.77
2019-03-18T08:07:45.633Z,45.28
2019-03-18T08:10:13.861Z,47.65
2019-03-18T08:12:41.935Z,42.53
2019-03-18T08:15:10.409Z,45.38
2019-03-18T08:17:38.891Z,48.95
2019-03-18T08:20:07.166Z,44.27
2019-03-18T08:22:35.648Z,45.80
2019-03-18T08:25:04.698Z,43.52
2019-03-18T08:27:32.921Z,39.55
2019-03-18T08:30:01.197Z,40.60
2019-03-18T08:32:29.986Z,42.17
2019-03-18T08:34:58.162Z,40.50
2019-03-18T08:37:26.451Z,42.62
2019-03-18T08:39:56.049Z,46.33
2019-03-18T08:42:24.130Z,39.73
2019-03-18T08:44:52.517Z,39.63
2019-03-18T08:47:20.780Z,38.60
2019-03-18T08:49:49.259Z,40.12
2019-03-18T08:52:17.433Z,36.77
2019-03-18T08:54:46.031Z,42.80
2019-03-18T08:57:14.653Z,35.78
2019-03-18T08:59:42.896Z,36.70
2019-03-18T09:02:11.163Z,37.25
2019-03-18T09:04:41.534Z,41.65
2019-03-18T09:07:09.351Z,37.80
2019-03-18T09:09:38.961Z,38.92
2019-03-18T09:12:07.447Z,40.85
2019-03-18T09:14:35.517Z,39.55
2019-03-18T09:17:03.998Z,43.83
2019-03-18T09:19:32.481Z,38.78
2019-03-18T09:22:00.970Z,41.08
2019-03-18T09:24:29.341Z,40.50
2019-03-18T09:27:02.661Z,40.45
2019-03-18T09:29:28.046Z,39.60
2019-03-18T09:31:56.535Z,43.30
2019-03-18T09:34:24.910Z,40.52
2019-03-18T09:36:53.501Z,42.58
2019-03-18T09:39:21.672Z,39.50
2019-03-18T09:41:50.158Z,41.63
2019-03-18T09:44:18.428Z,38.92
2019-03-18T09:46:46.604Z,38.70
2019-03-18T09:49:21.520Z,39.80
2019-03-18T09:51:44.493Z,39.00
2019-03-18T09:54:13.075Z,44.98
2019-03-18T09:56:41.658Z,40.12
2019-03-18T09:59:09.833Z,40.85
2019-03-18T10:01:38.319Z,41.60
2019-03-18T10:04:10.792Z,42.13
2019-03-18T10:06:39.068Z,44.45
2019-03-18T10:09:07.457Z,50.23
2019-03-18T10:11:35.932Z,49.65
2019-03-18T10:14:04.209Z,45.12
2019-03-18T10:16:32.589Z,47.17
2019-03-18T10:19:01.175Z,46.42
2019-03-18T10:21:29.041Z,47.15
2019-03-18T10:23:57.424Z,45.67
2019-03-18T10:26:25.804Z,50.20
2019-03-18T10:28:53.979Z,47.67
2019-03-18T10:31:22.458Z,46.02
2019-03-18T10:33:50.942Z,48.87
2019-03-18T10:36:19.626Z,47.78
2019-03-18T10:38:47.340Z,43.60
2019-03-18T10:41:15.465Z,44.53
2019-03-18T10:43:43.749Z,44.03
2019-03-18T10:46:12.125Z,42.13
2019-03-18T10:48:41.628Z,45.30
2019-03-18T10:51:09.716Z,40.17
2019-03-18T10:53:37.782Z,42.55
2019-03-18T10:56:07.947Z,38.80
2019-03-18T10:58:37.098Z,43.58
2019-03-18T11:01:05.475Z,43.58
2019-03-18T11:03:34.161Z,39.60
2019-03-18T11:06:02.336Z,44.18
2019-03-18T11:08:31.023Z,45.65
2019-03-18T11:10:59.095Z,51.90
2019-03-18T11:13:27.375Z,46.40
2019-03-18T11:15:55.656Z,41.37
2019-03-18T11:18:24.029Z,43.15
2019-03-18T11:20:52.411Z,45.73
2019-03-18T11:23:20.792Z,40.38
2019-03-18T11:25:49.272Z,42.20
2019-03-18T11:28:17.418Z,47.62
2019-03-18T11:30:45.417Z,47.17
2019-03-18T11:33:13.699Z,45.10
2019-03-18T11:35:42.282Z,47.33
2019-03-18T11:38:10.721Z,46.02
2019-03-18T11:40:39.149Z,43.40
2019-03-18T11:43:07.630Z,49.58
2019-03-18T11:45:36.018Z,44.38
2019-03-18T11:48:04.590Z,46.58
2019-03-18T11:50:33.377Z,47.05
2019-03-18T11:53:13.432Z,53.55
2019-03-18T11:55:31.471Z,46.50
2019-03-18T11:58:02.874Z,51.13
2019-03-18T12:00:30.383Z,53.90
2019-03-18T12:02:58.656Z,50.17
2019-03-18T12:05:27.038Z,64.95
2019-03-18T12:07:55.214Z,60.85
2019-03-18T12:10:25.719Z,65.35
2019-03-18T12:12:53.402Z,83.20
2019-03-18T12:15:22.090Z,81.02
2019-03-18T12:17:51.093Z,83.60
2019-03-18T12:20:24.666Z,84.52
2019-03-18T12:22:49.693Z,75.57
2019-03-18T12:25:18.069Z,79.58
2019-03-18T12:27:46.344Z,76.85
2019-03-18T12:30:15.052Z,77.37
2019-03-18T12:32:43.309Z,71.92
2019-03-18T12:35:11.691Z,72.25
2019-03-18T12:37:40.381Z,72.72
2019-03-18T12:40:09.476Z,76.02
2019-03-18T12:42:37.653Z,76.87
2019-03-18T12:45:08.690Z,73.92
2019-03-18T12:47:35.639Z,74.90
2019-03-18T12:50:03.812Z,74.47
2019-03-18T12:52:32.396Z,71.15
2019-03-18T12:55:00.881Z,73.25
2019-03-18T12:57:29.058Z,74.95
2019-03-18T12:59:58.799Z,75.10
2019-03-18T13:02:26.851Z,73.40
2019-03-18T13:04:55.531Z,74.92
2019-03-18T13:07:23.700Z,67.53
2019-03-18T13:09:52.089Z,65.45
2019-03-18T13:12:20.157Z,75.10
2019-03-18T13:14:48.846Z,74.32
2019-03-18T13:17:17.013Z,81.90
2019-03-18T13:19:45.297Z,78.50
2019-03-18T13:22:13.568Z,82.67
2019-03-18T13:24:41.951Z,66.82
2019-03-18T13:27:10.031Z,78.40
2019-03-18T13:29:38.504Z,69.70
2019-03-18T13:32:06.784Z,66.40
2019-03-18T13:34:35.160Z,73.37
2019-03-18T13:37:03.747Z,68.67
2019-03-18T13:39:31.829Z,65.75
2019-03-18T13:42:00.530Z,69.10
2019-03-18T13:44:32.268Z,66.75
2019-03-18T13:47:00.652Z,67.82
2019-03-18T13:49:29.129Z,76.77
2019-03-18T13:51:57.916Z,68.78
2019-03-18T13:54:26.112Z,78.65
2019-03-18T13:56:54.187Z,79.12
2019-03-18T13:59:22.873Z,74.53
2019-03-18T14:01:51.026Z,73.05
2019-03-18T14:04:19.510Z,73.65
2019-03-18T14:06:48.813Z,73.55
2019-03-18T14:09:16.983Z,71.10
2019-03-18T14:11:45.482Z,78.57
2019-03-18T14:14:13.643Z,71.55
2019-03-18T14:16:41.719Z,79.32
2019-03-18T14:19:10.117Z,76.17
2019-03-18T14:21:38.271Z,76.30
2019-03-18T14:24:08.804Z,79.53
2019-03-18T14:26:38.408Z,72.75
2019-03-18T14:29:07.203Z,78.90
2019-03-18T14:31:35.785Z,77.75
2019-03-18T14:34:03.856Z,74.72
2019-03-18T14:36:32.235Z,74.60
2019-03-18T14:39:00.937Z,70.78
2019-03-18T14:41:29.919Z,71.30
2019-03-18T14:44:01.999Z,77.45
2019-03-18T14:46:30.055Z,72.75
2019-03-18T14:48:58.540Z,69.25
2019-03-18T14:51:26.918Z,72.53
2019-03-18T14:53:55.297Z,71.22
2019-03-18T14:56:23.682Z,72.70
2019-03-18T14:58:52.263Z,74.90
2019-03-18T15:01:20.642Z,70.62
2019-03-18T15:03:48.817Z,72.70
2019-03-18T15:06:17.503Z,68.55
2019-03-18T15:08:46.868Z,74.82
2019-03-18T15:11:15.187Z,70.52
2019-03-18T15:13:43.782Z,68.80
2019-03-18T15:16:13.081Z,76.55
2019-03-18T15:18:41.250Z,63.50
2019-03-18T15:21:09.836Z,68.75
2019-03-18T15:23:43.438Z,67.00
2019-03-18T15:26:10.413Z,68.83
2019-03-18T15:28:38.868Z,63.00
2019-03-18T15:31:07.037Z,67.55
2019-03-18T15:33:35.518Z,68.05
2019-03-18T15:36:04.018Z,71.02
2019-03-18T15:38:32.075Z,63.40
2019-03-18T15:41:00.778Z,66.72
2019-03-18T15:43:29.155Z,67.62
2019-03-18T15:45:57.625Z,62.80
2019-03-18T15:48:25.699Z,60.65
2019-03-18T15:50:54.287Z,65.17
2019-03-18T15:53:33.432Z,63.35
2019-03-18T15:56:01.604Z,62.38
2019-03-18T15:58:31.017Z,60.88
2019-03-18T16:00:59.489Z,58.45
2019-03-18T16:03:28.980Z,58.05
2019-03-18T16:05:57.256Z,61.45
2019-03-18T16:08:25.329Z,60.43
2019-03-18T16:10:53.748Z,60.98
2019-03-18T16:13:22.191Z,59.03
2019-03-18T16:15:50.264Z,61.50
2019-03-18T16:18:19.775Z,59.58
2019-03-18T16:20:48.266Z,59.42
2019-03-18T16:23:16.636Z,59.15
2019-03-18T16:25:45.126Z,56.15
2019-03-18T16:28:13.705Z,58.65
2019-03-18T16:30:42.285Z,55.30
2019-03-18T16:33:10.678Z,55.20
2019-03-18T16:35:39.254Z,53.80
2019-03-18T16:38:07.649Z,53.80
2019-03-18T16:40:36.627Z,57.65
2019-03-18T16:43:05.207Z,52.15
2019-03-18T16:45:33.586Z,51.63
2019-03-18T16:48:02.378Z,53.20
2019-03-18T16:50:30.657Z,55.70
2019-03-18T16:52:59.281Z,53.05
2019-03-18T16:55:27.516Z,61.53
2019-03-18T16:57:56.103Z,52.05
2019-03-18T17:00:24.482Z,54.70
2019-03-18T17:02:52.865Z,57.20
2019-03-18T17:05:21.243Z,54.73
2019-03-18T17:07:49.830Z,53.85
2019-03-18T17:10:18.118Z,60.23
2019-03-18T17:12:49.157Z,54.80
2019-03-18T17:15:17.728Z,54.10
2019-03-18T17:17:45.903Z,52.62
2019-03-18T17:20:14.186Z,53.65
2019-03-18T17:22:48.860Z,54.63
2019-03-18T17:25:12.305Z,53.38
2019-03-18T17:27:40.549Z,53.68
2019-03-18T17:30:08.827Z,51.90
2019-03-18T17:32:37.208Z,51.18
2019-03-18T17:35:05.414Z,53.95
2019-03-18T17:37:33.967Z,53.38
2019-03-18T17:40:02.346Z,49.95
2019-03-18T17:42:30.737Z,47.88
2019-03-18T17:44:59.112Z,51.23
2019-03-18T17:47:28.000Z,49.73
2019-03-18T17:49:56.382Z,50.98
2019-03-18T17:52:24.757Z,50.05
2019-03-18T17:54:53.343Z,47.43
2019-03-18T17:57:24.593Z,51.65
2019-03-18T17:59:53.297Z,53.63
2019-03-18T18:02:21.454Z,52.10
2019-03-18T18:05:02.153Z,51.60
2019-03-18T18:07:21.079Z,52.17
2019-03-18T18:09:49.359Z,55.55
2019-03-18T18:12:17.736Z,49.00
2019-03-18T18:14:46.586Z,48.98
2019-03-18T18:17:14.618Z,49.10
2019-03-18T18:19:42.782Z,50.35
2019-03-18T18:22:11.573Z,50.65
2019-03-18T18:24:39.740Z,49.25
2019-03-18T18:27:08.359Z,48.25
2019-03-18T18:29:36.701Z,51.75
2019-03-18T18:32:04.982Z,50.17
2019-03-18T18:34:33.152Z,47.65
2019-03-18T18:37:02.319Z,51.40
2019-03-18T18:39:30.812Z,45.33
2019-03-18T18:41:59.011Z,48.65
2019-03-18T18:44:27.494Z,51.80
2019-03-18T18:46:55.667Z,50.98
2019-03-18T18:49:23.951Z,50.25
2019-03-18T18:51:52.529Z,48.85
2019-03-18T18:54:20.910Z,48.23
2019-03-18T18:56:49.396Z,52.80
2019-03-18T18:59:17.771Z,46.55
2019-03-18T19:01:46.151Z,46.75
2019-03-18T19:04:14.121Z,46.18
2019-03-18T19:06:42.914Z,48.23
2019-03-18T19:09:10.992Z,46.80
2019-03-18T19:11:39.362Z,48.35
2019-03-18T19:14:07.653Z,46.25
2019-03-18T19:16:35.715Z,50.33
2019-03-18T19:19:04.195Z,48.55
2019-03-18T19:21:32.370Z,48.40
2019-03-18T19:24:00.750Z,50.08
2019-03-18T19:26:28.824Z,51.40
2019-03-18T19:28:57.628Z,47.50
2019-03-18T19:31:25.688Z,45.83
2019-03-18T19:33:54.171Z,47.25
2019-03-18T19:36:22.657Z,47.90
2019-03-18T19:38:50.762Z,45.75
2019-03-18T19:41:18.900Z,48.40
2019-03-18T19:43:47.277Z,47.33
2019-03-18T19:46:15.556Z,47.25
2019-03-18T19:48:44.141Z,46.88
2019-03-18T19:51:12.622Z,48.87
2019-03-18T19:53:48.652Z,49.77
2019-03-18T19:56:10.204Z,48.87
2019-03-18T19:58:38.272Z,47.15
2019-03-18T20:01:07.576Z,48.60
2019-03-18T20:03:37.646Z,46.58
2019-03-18T20:06:05.257Z,47.38
2019-03-18T20:08:33.433Z,46.05
2019-03-18T20:11:01.613Z,46.02
2019-03-18T20:13:30.191Z,48.52
2019-03-18T20:15:58.367Z,45.52
2019-03-18T20:18:26.542Z,46.85
2019-03-18T20:20:56.845Z,50.78
2019-03-18T20:23:24.323Z,44.95
2019-03-18T20:25:52.707Z,46.80
2019-03-18T20:28:21.392Z,47.67
2019-03-18T20:30:50.697Z,49.35
2019-03-18T20:33:19.075Z,47.75
2019-03-18T20:35:47.663Z,46.68
2019-03-18T20:38:16.140Z,48.95
2019-03-18T20:40:44.622Z,51.42
2019-03-18T20:43:13.411Z,49.67
2019-03-18T20:45:41.588Z,49.30
2019-03-18T20:48:10.068Z,47.15
2019-03-18T20:50:38.550Z,44.65
2019-03-18T20:53:07.240Z,44.98
2019-03-18T20:55:35.619Z,48.45
2019-03-18T20:58:03.895Z,46.85
2019-03-18T21:00:31.864Z,43.35
2019-03-18T21:03:00.142Z,47.67
2019-03-18T21:05:28.528Z,45.50
2019-03-18T21:07:56.699Z,48.90
2019-03-18T21:10:24.775Z,45.05
2019-03-18T21:12:53.458Z,45.10
2019-03-18T21:15:21.738Z,44.75
2019-03-18T21:17:49.963Z,47.90
2019-03-18T21:20:18.187Z,45.78
2019-03-18T21:22:46.568Z,45.98
2019-03-18T21:25:14.742Z,46.83
2019-03-18T21:27:43.121Z,45.15
2019-03-18T21:30:11.195Z,45.28
2019-03-18T21:32:39.573Z,47.90
2019-03-18T21:35:08.055Z,49.03
2019-03-18T21:37:36.444Z,45.98
2019-03-18T21:40:04.818Z,44.30
2019-03-18T21:42:32.901Z,47.93
2019-03-18T21:45:01.166Z,45.98
2019-03-18T21:47:30.059Z,42.00
2019-03-18T21:49:58.650Z,43.55
2019-03-18T21:52:26.620Z,45.65
2019-03-18T21:54:55.095Z,45.70
2019-03-18T21:57:23.373Z,45.08
2019-03-18T21:59:51.919Z,44.55
2019-03-18T22:02:20.439Z,46.55
2019-03-18T22:04:49.024Z,44.98
2019-03-18T22:07:17.405Z,42.85
2019-03-18T22:09:45.614Z,46.20
2019-03-18T22:12:13.860Z,41.37
2019-03-18T22:14:42.030Z,45.60
2019-03-18T22:17:10.532Z,41.77
2019-03-18T22:19:38.792Z,45.95
2019-03-18T22:22:06.949Z,45.10
2019-03-18T22:24:44.774Z,42.98
2019-03-18T22:27:04.851Z,42.25
2019-03-18T22:29:33.027Z,44.65
2019-03-18T22:32:01.101Z,45.15
2019-03-18T22:34:29.786Z,42.88
2019-03-18T22:36:57.962Z,42.50
2019-03-18T22:39:26.551Z,45.52
2019-03-18T22:41:54.823Z,40.08
2019-03-18T22:44:23.307Z,42.65
2019-03-18T22:46:51.381Z,41.35
2019-03-18T22:49:20.177Z,42.60
2019-03-18T22:51:48.241Z,43.45
2019-03-18T22:54:17.550Z,44.03
2019-03-18T22:56:46.230Z,39.08
2019-03-18T22:59:14.302Z,46.98
2019-03-18T23:01:42.890Z,43.85
2019-03-18T23:04:11.066Z,43.78
2019-03-18T23:06:39.544Z,44.58
2019-03-18T23:09:07.934Z,43.40
2019-03-18T23:11:36.515Z,46.50
2019-03-18T23:14:04.709Z,45.95
2019-03-18T23:16:32.859Z,42.78
2019-03-18T23:19:01.754Z,44.20
2019-03-18T23:21:30.036Z,45.58
2019-03-18T23:23:58.410Z,45.23
2019-03-18T23:26:28.324Z,41.10
2019-03-18T23:28:56.807Z,45.15
2019-03-18T23:31:25.516Z,45.15
2019-03-18T23:33:54.088Z,48.15
2019-03-18T23:36:22.357Z,48.75
2019-03-18T23:38:50.944Z,47.60
2019-03-18T23:41:19.117Z,44.27
2019-03-18T23:43:47.393Z,45.67
2019-03-18T23:46:15.673Z,45.30
2019-03-18T23:48:43.951Z,45.45
2019-03-18T23:51:11.920Z,50.48
2019-03-18T23:53:40.399Z,50.10
2019-03-18T23:56:08.984Z,44.83
2019-03-18T23:58:37.260Z,47.90
